createdAt,value
2018-08-10T00:00:51.982Z,91.90
2018-08-10T00:03:20.455Z,91.20
2018-08-10T00:05:49.054Z,91.60
2018-08-10T00:08:17.542Z,91.60
2018-08-10T00:10:46.013Z,92.10
2018-08-10T00:13:14.717Z,91.90
2018-08-10T00:15:43.125Z,91.80
2018-08-10T00:18:11.655Z,91.90
2018-08-10T00:20:40.067Z,92.40
2018-08-10T00:23:08.999Z,92.10
2018-08-10T00:25:37.451Z,92.70
2018-08-10T00:28:06.379Z,92.00
2018-08-10T00:30:35.118Z,92.50
2018-08-10T00:33:03.562Z,92.10
2018-08-10T00:35:31.996Z,92.50
2018-08-10T00:38:00.414Z,92.90
2018-08-10T00:40:28.876Z,93.00
2018-08-10T00:42:57.414Z,93.20
2018-08-10T00:45:25.821Z,93.00
2018-08-10T00:47:54.262Z,93.20
2018-08-10T00:50:22.665Z,92.70
2018-08-10T00:52:51.112Z,93.00
2018-08-10T00:55:20.165Z,93.30
2018-08-10T00:57:49.151Z,93.70
2018-08-10T01:00:19.871Z,93.60
2018-08-10T01:02:48.327Z,93.70
2018-08-10T01:05:16.759Z,93.90
2018-08-10T01:07:45.174Z,94.00
2018-08-10T01:10:15.712Z,93.80
2018-08-10T01:12:44.189Z,93.70
2018-08-10T01:15:14.409Z,93.60
2018-08-10T01:17:43.663Z,94.20
2018-08-10T01:20:15.891Z,93.70
2018-08-10T01:22:49.838Z,93.70
2018-08-10T01:25:19.204Z,93.90
2018-08-10T01:27:52.935Z,93.50
2018-08-10T01:30:21.400Z,94.00
2018-08-10T01:32:50.174Z,93.90
2018-08-10T01:35:18.750Z,93.20
2018-08-10T01:37:47.339Z,93.20
2018-08-10T01:40:16.605Z,93.60
2018-08-10T01:42:45.158Z,94.00
2018-08-10T01:45:13.630Z,94.00
2018-08-10T01:47:42.205Z,94.10
2018-08-10T01:50:10.644Z,94.30
2018-08-10T01:52:39.689Z,94.50
2018-08-10T01:55:08.665Z,94.70
2018-08-10T01:57:37.867Z,94.00
2018-08-10T02:00:06.639Z,94.20
2018-08-10T02:02:35.388Z,93.70
2018-08-10T02:05:04.054Z,93.70
2018-08-10T02:07:36.380Z,93.00
2018-08-10T02:10:06.937Z,93.70
2018-08-10T02:12:35.629Z,93.60
2018-08-10T02:15:06.135Z,93.60
2018-08-10T02:17:34.551Z,93.90
2018-08-10T02:20:03.201Z,94.10
2018-08-10T02:22:31.680Z,94.60
2018-08-10T02:25:00.279Z,94.40
2018-08-10T02:27:28.741Z,94.50
2018-08-10T02:29:57.287Z,94.40
2018-08-10T02:32:25.702Z,94.30
2018-08-10T02:34:54.282Z,94.40
2018-08-10T02:37:22.718Z,94.50
2018-08-10T02:39:51.294Z,94.60
2018-08-10T02:42:19.734Z,94.80
2018-08-10T02:44:48.489Z,94.40
2018-08-10T02:47:21.112Z,94.80
2018-08-10T02:49:49.575Z,94.60
2018-08-10T02:52:18.052Z,94.50
2018-08-10T02:54:46.526Z,94.40
2018-08-10T02:57:14.927Z,94.20
2018-08-10T02:59:44.286Z,94.50
2018-08-10T03:02:12.747Z,94.00
2018-08-10T03:04:41.183Z,93.90
2018-08-10T03:07:09.650Z,93.70
2018-08-10T03:09:38.410Z,93.80
2018-08-10T03:12:07.496Z,93.80
2018-08-10T03:14:35.942Z,93.60
2018-08-10T03:17:04.377Z,93.80
2018-08-10T03:19:32.986Z,94.40
2018-08-10T03:22:01.447Z,94.90
2018-08-10T03:24:30.129Z,94.50
2018-08-10T03:26:58.779Z,94.50
2018-08-10T03:29:27.323Z,93.60
2018-08-10T03:31:55.748Z,94.40
2018-08-10T03:34:24.390Z,94.00
2018-08-10T03:36:52.778Z,93.50
2018-08-10T03:39:21.228Z,93.20
2018-08-10T03:41:49.700Z,93.40
2018-08-10T03:44:18.214Z,93.90
2018-08-10T03:46:46.659Z,93.40
2018-08-10T03:49:15.135Z,92.80
2018-08-10T03:51:43.635Z,92.70
2018-08-10T03:54:12.037Z,93.10
2018-08-10T03:56:40.529Z,93.50
2018-08-10T03:59:08.934Z,93.40
2018-08-10T04:01:37.370Z,93.40
2018-08-10T04:04:05.858Z,92.90
2018-08-10T04:06:34.366Z,92.60
2018-08-10T04:09:02.950Z,92.80
2018-08-10T04:11:31.566Z,93.20
2018-08-10T04:13:59.963Z,93.10
2018-08-10T04:16:28.411Z,93.00
2018-08-10T04:18:57.203Z,92.90
2018-08-10T04:21:25.635Z,93.10
2018-08-10T04:23:54.047Z,92.60
2018-08-10T04:26:22.479Z,92.70
2018-08-10T04:28:50.907Z,92.60
2018-08-10T04:31:19.382Z,93.00
2018-08-10T04:33:47.870Z,92.50
2018-08-10T04:36:16.302Z,92.50
2018-08-10T04:38:44.743Z,92.60
2018-08-10T04:41:13.229Z,92.70
2018-08-10T04:43:41.676Z,93.20
2018-08-10T04:46:10.156Z,93.30
2018-08-10T04:48:38.658Z,93.30
2018-08-10T04:51:07.242Z,93.40
2018-08-10T04:53:35.649Z,93.70
2018-08-10T04:56:04.143Z,93.80
2018-08-10T04:58:32.555Z,93.70
2018-08-10T05:01:01.067Z,93.80
2018-08-10T05:03:29.523Z,93.90
2018-08-10T05:05:58.037Z,93.90
2018-08-10T05:08:32.864Z,93.90
2018-08-10T05:11:01.376Z,93.50
2018-08-10T05:13:29.805Z,93.60
2018-08-10T05:15:58.289Z,93.60
2018-08-10T05:18:26.704Z,93.60
2018-08-10T05:20:55.402Z,93.40
2018-08-10T05:23:23.929Z,92.10
2018-08-10T05:25:52.391Z,92.00
2018-08-10T05:28:20.808Z,92.00
2018-08-10T05:30:49.198Z,91.50
2018-08-10T05:33:17.605Z,91.70
2018-08-10T05:35:46.134Z,91.30
2018-08-10T05:38:14.556Z,91.60
2018-08-10T05:40:43.013Z,91.40
2018-08-10T05:43:11.456Z,93.20
2018-08-10T05:45:39.903Z,92.70
2018-08-10T05:48:08.377Z,93.10
2018-08-10T05:50:36.952Z,93.90
2018-08-10T05:53:05.905Z,92.80
2018-08-10T05:55:34.308Z,93.70
2018-08-10T05:58:02.743Z,93.20
2018-08-10T06:00:31.148Z,92.90
2018-08-10T06:02:59.908Z,92.90
2018-08-10T06:05:28.314Z,92.70
2018-08-10T06:07:56.816Z,92.70
2018-08-10T06:10:25.457Z,93.20
2018-08-10T06:12:53.929Z,93.40
2018-08-10T06:15:22.518Z,93.40
2018-08-10T06:17:51.126Z,93.90
2018-08-10T06:20:19.527Z,94.20
2018-08-10T06:22:47.988Z,94.50
2018-08-10T06:25:16.587Z,94.80
2018-08-10T06:27:45.021Z,94.90
2018-08-10T06:30:13.610Z,94.90
2018-08-10T06:32:42.102Z,93.20
2018-08-10T06:35:10.545Z,94.20
2018-08-10T06:37:39.130Z,95.10
2018-08-10T06:40:07.588Z,93.80
2018-08-10T06:42:36.084Z,93.80
2018-08-10T06:45:04.941Z,94.20
2018-08-10T06:47:33.407Z,93.80
2018-08-10T06:50:01.831Z,93.70
2018-08-10T06:52:30.273Z,93.60
2018-08-10T06:55:02.569Z,93.80
2018-08-10T06:57:31.161Z,93.60
2018-08-10T06:59:59.693Z,93.10
2018-08-10T07:02:28.130Z,93.40
2018-08-10T07:04:56.905Z,92.50
2018-08-10T07:07:25.762Z,92.60
2018-08-10T07:09:54.355Z,92.30
2018-08-10T07:12:22.862Z,91.70
2018-08-10T07:14:51.370Z,92.10
2018-08-10T07:17:19.979Z,91.50
2018-08-10T07:19:48.514Z,91.70
2018-08-10T07:22:16.986Z,91.60
2018-08-10T07:24:45.387Z,90.20
2018-08-10T07:27:13.956Z,90.10
2018-08-10T07:29:42.509Z,90.30
2018-08-10T07:32:11.127Z,90.90
2018-08-10T07:34:39.534Z,91.20
2018-08-10T07:37:07.983Z,91.40
2018-08-10T07:39:36.445Z,91.50
2018-08-10T07:42:05.170Z,92.00
2018-08-10T07:44:33.608Z,91.90
2018-08-10T07:47:02.109Z,91.20
2018-08-10T07:49:30.511Z,91.40
2018-08-10T07:51:58.997Z,91.20
2018-08-10T07:54:27.529Z,91.50
2018-08-10T07:56:55.981Z,91.50
2018-08-10T07:59:24.420Z,91.90
2018-08-10T08:01:52.966Z,91.80
2018-08-10T08:04:21.420Z,91.90
2018-08-10T08:06:49.858Z,92.10
2018-08-10T08:09:18.675Z,91.90
2018-08-10T08:11:47.193Z,91.80
2018-08-10T08:14:15.687Z,91.70
2018-08-10T08:16:44.163Z,92.20
2018-08-10T08:19:12.684Z,92.10
2018-08-10T08:22:18.204Z,93.10
2018-08-10T08:24:46.659Z,92.60
2018-08-10T08:27:16.426Z,92.80
2018-08-10T08:29:45.158Z,92.60
2018-08-10T08:32:13.830Z,92.60
2018-08-10T08:34:42.381Z,92.10
2018-08-10T08:37:11.476Z,91.90
2018-08-10T08:40:47.376Z,92.30
2018-08-10T08:43:26.205Z,93.00
2018-08-10T08:46:14.634Z,91.70
2018-08-10T08:48:44.672Z,92.10
2018-08-10T08:51:14.892Z,91.40
2018-08-10T08:53:43.311Z,91.90
2018-08-10T08:56:13.471Z,92.10
2018-08-10T08:58:42.633Z,91.50
2018-08-10T09:01:11.555Z,91.40
2018-08-10T09:04:58.779Z,91.70
2018-08-10T09:07:28.322Z,91.40
2018-08-10T09:09:57.470Z,91.80
2018-08-10T09:12:26.166Z,91.70
2018-08-10T09:14:57.113Z,92.20
2018-08-10T09:17:25.830Z,92.20
2018-08-10T09:19:54.405Z,92.50
2018-08-10T09:22:22.892Z,92.20
2018-08-10T09:24:51.406Z,92.10
2018-08-10T09:27:20.058Z,92.00
2018-08-10T09:29:48.572Z,92.80
2018-08-10T09:32:17.092Z,92.30
2018-08-10T09:34:45.485Z,92.00
2018-08-10T09:37:14.222Z,91.90
2018-08-10T09:39:42.665Z,91.90
2018-08-10T09:42:11.207Z,91.80
2018-08-10T09:44:39.767Z,91.30
2018-08-10T09:47:09.091Z,90.70
2018-08-10T09:49:39.797Z,91.70
2018-08-10T09:52:08.305Z,90.90
2018-08-10T09:55:20.679Z,90.70
2018-08-10T09:57:50.353Z,90.50
2018-08-10T10:00:24.542Z,90.00
2018-08-10T10:03:57.043Z,91.00
2018-08-10T10:06:25.491Z,90.90
2018-08-10T10:08:54.023Z,89.80
2018-08-10T10:11:22.730Z,90.60
2018-08-10T10:13:51.451Z,90.00
2018-08-10T10:16:19.868Z,90.90
2018-08-10T10:18:48.338Z,91.20
2018-08-10T10:21:16.823Z,90.20
2018-08-10T10:23:45.487Z,90.00
2018-08-10T10:26:13.943Z,87.20
2018-08-10T10:28:42.412Z,86.50
2018-08-10T10:31:10.879Z,89.50
2018-08-10T10:33:39.499Z,86.30
2018-08-10T10:36:07.942Z,88.70
2018-08-10T10:38:36.391Z,87.60
2018-08-10T10:41:05.014Z,87.10
2018-08-10T10:43:33.487Z,86.10
2018-08-10T10:46:01.964Z,85.90
2018-08-10T10:48:30.454Z,83.90
2018-08-10T10:50:59.141Z,82.90
2018-08-10T10:53:27.707Z,84.00
2018-08-10T10:55:56.227Z,83.50
2018-08-10T10:58:24.913Z,83.70
2018-08-10T11:00:53.333Z,83.50
2018-08-10T11:03:21.788Z,81.60
2018-08-10T11:05:50.251Z,83.70
2018-08-10T11:08:18.683Z,85.20
2018-08-10T11:10:47.122Z,82.90
2018-08-10T11:13:15.559Z,83.30
2018-08-10T11:15:44.034Z,84.40
2018-08-10T11:18:12.481Z,79.90
2018-08-10T11:20:41.094Z,80.50
2018-08-10T11:23:09.943Z,78.00
2018-08-10T11:25:38.422Z,79.90
2018-08-10T11:28:07.194Z,80.90
2018-08-10T11:30:35.781Z,81.60
2018-08-10T11:33:04.222Z,82.00
2018-08-10T11:35:32.691Z,81.30
2018-08-10T11:38:01.215Z,83.50
2018-08-10T11:40:29.810Z,81.70
2018-08-10T11:42:58.416Z,79.80
2018-08-10T11:45:26.928Z,77.80
2018-08-10T11:47:55.370Z,74.50
2018-08-10T11:50:23.789Z,73.80
2018-08-10T11:52:52.210Z,76.40
2018-08-10T11:55:20.631Z,76.10
2018-08-10T11:57:49.254Z,77.50
2018-08-10T12:00:17.681Z,78.50
2018-08-10T12:02:46.187Z,79.90
2018-08-10T12:05:14.819Z,78.20
2018-08-10T12:07:43.311Z,76.90
2018-08-10T12:10:11.816Z,77.30
2018-08-10T12:12:40.317Z,75.00
2018-08-10T12:15:10.847Z,74.60
2018-08-10T12:17:39.738Z,74.40
2018-08-10T12:20:08.686Z,76.10
2018-08-10T12:22:37.192Z,73.80
2018-08-10T12:25:05.893Z,74.50
2018-08-10T12:27:34.434Z,77.90
2018-08-10T12:30:02.868Z,76.90
2018-08-10T12:32:31.363Z,76.40
2018-08-10T12:34:59.905Z,75.40
2018-08-10T12:37:28.392Z,75.80
2018-08-10T12:39:56.849Z,76.10
2018-08-10T12:42:25.310Z,73.90
2018-08-10T12:44:53.718Z,75.00
2018-08-10T12:47:22.138Z,76.60
2018-08-10T12:49:50.585Z,75.60
2018-08-10T12:52:19.022Z,71.10
2018-08-10T12:54:47.502Z,71.50
2018-08-10T12:57:15.987Z,71.30
2018-08-10T12:59:44.434Z,73.10
2018-08-10T13:02:12.870Z,74.50
2018-08-10T13:04:41.590Z,75.00
2018-08-10T13:07:10.172Z,76.90
2018-08-10T13:09:38.665Z,76.10
2018-08-10T13:12:07.138Z,75.30
2018-08-10T13:14:35.720Z,77.00
2018-08-10T13:17:04.180Z,77.20
2018-08-10T13:19:32.639Z,77.10
2018-08-10T13:22:01.141Z,77.50
2018-08-10T13:24:29.699Z,74.40
2018-08-10T13:26:58.284Z,74.30
2018-08-10T13:29:26.878Z,75.80
2018-08-10T13:31:55.290Z,74.80
2018-08-10T13:34:23.762Z,73.80
2018-08-10T13:36:52.202Z,74.70
2018-08-10T13:39:20.827Z,75.50
2018-08-10T13:41:49.239Z,75.00
2018-08-10T13:44:17.711Z,74.70
2018-08-10T13:46:46.135Z,75.30
2018-08-10T13:49:14.634Z,75.10
2018-08-10T13:51:43.235Z,75.00
2018-08-10T13:54:11.801Z,76.30
2018-08-10T13:56:40.390Z,76.80
2018-08-10T13:59:09.216Z,75.20
2018-08-10T14:01:37.752Z,75.60
2018-08-10T14:04:06.146Z,77.50
2018-08-10T14:06:34.703Z,78.30
2018-08-10T14:09:03.398Z,75.10
2018-08-10T14:11:31.848Z,75.90
2018-08-10T14:14:00.360Z,75.00
2018-08-10T14:16:29.044Z,73.80
2018-08-10T14:18:57.543Z,74.80
2018-08-10T14:21:26.045Z,75.30
2018-08-10T14:23:54.775Z,76.10
2018-08-10T14:26:23.281Z,75.50
2018-08-10T14:28:51.706Z,74.30
2018-08-10T14:31:20.230Z,73.20
2018-08-10T14:33:48.916Z,72.60
2018-08-10T14:36:17.402Z,73.00
2018-08-10T14:38:45.872Z,73.30
2018-08-10T14:41:14.696Z,74.80
2018-08-10T14:43:43.274Z,74.00
2018-08-10T14:46:11.721Z,74.00
2018-08-10T14:48:40.427Z,73.50
2018-08-10T14:51:08.865Z,73.60
2018-08-10T14:53:37.423Z,73.10
2018-08-10T14:56:06.365Z,73.30
2018-08-10T14:58:34.807Z,73.00
2018-08-10T15:01:03.264Z,73.50
2018-08-10T15:03:32.107Z,73.70
2018-08-10T15:06:00.558Z,74.10
2018-08-10T15:08:28.976Z,74.70
2018-08-10T15:10:57.450Z,74.20
2018-08-10T15:13:26.075Z,73.50
2018-08-10T15:15:54.518Z,72.20
2018-08-10T15:18:23.199Z,73.00
2018-08-10T15:20:51.644Z,74.70
2018-08-10T15:23:20.299Z,74.80
2018-08-10T15:25:48.792Z,76.10
2018-08-10T15:28:17.317Z,75.10
2018-08-10T15:30:45.858Z,75.60
2018-08-10T15:33:14.591Z,76.30
2018-08-10T15:35:43.102Z,76.50
2018-08-10T15:38:11.598Z,76.80
2018-08-10T15:40:40.185Z,77.00
2018-08-10T15:43:08.808Z,77.30
2018-08-10T15:45:37.288Z,77.30
2018-08-10T15:48:05.972Z,77.00
2018-08-10T15:50:34.426Z,77.50
2018-08-10T15:53:37.783Z,75.60
2018-08-10T15:56:06.552Z,73.80
2018-08-10T15:58:35.232Z,73.60
2018-08-10T16:01:03.692Z,74.10
2018-08-10T16:03:32.470Z,71.60
2018-08-10T16:06:00.985Z,71.20
2018-08-10T16:08:29.475Z,74.50
2018-08-10T16:10:58.090Z,72.10
2018-08-10T16:13:26.538Z,72.90
2018-08-10T16:15:54.946Z,72.10
2018-08-10T16:18:23.536Z,70.70
2018-08-10T16:20:51.979Z,69.40
2018-08-10T16:23:20.437Z,70.90
2018-08-10T16:25:48.887Z,70.20
2018-08-10T16:28:17.486Z,71.60
2018-08-10T16:30:46.189Z,72.00
2018-08-10T16:33:14.660Z,70.80
2018-08-10T16:35:43.719Z,69.80
2018-08-10T16:38:12.131Z,70.40
2018-08-10T16:40:40.580Z,71.50
2018-08-10T16:43:09.404Z,71.40
2018-08-10T16:45:37.868Z,71.90
2018-08-10T16:48:06.696Z,71.30
2018-08-10T16:50:35.094Z,72.10
2018-08-10T16:53:03.586Z,73.20
2018-08-10T16:55:32.088Z,73.00
2018-08-10T16:58:00.538Z,73.30
2018-08-10T17:00:29.082Z,74.00
2018-08-10T17:02:57.527Z,74.40
2018-08-10T17:05:26.129Z,74.60
2018-08-10T17:07:54.821Z,76.00
2018-08-10T17:10:23.283Z,75.70
2018-08-10T17:12:51.698Z,76.10
2018-08-10T17:15:20.618Z,76.20
2018-08-10T17:17:49.978Z,76.60
2018-08-10T17:20:18.767Z,75.80
2018-08-10T17:22:47.230Z,75.30
2018-08-10T17:25:17.278Z,75.70
2018-08-10T17:27:45.757Z,76.60
2018-08-10T17:30:15.349Z,76.50
2018-08-10T17:32:43.759Z,76.40
2018-08-10T17:35:14.365Z,76.20
2018-08-10T17:37:43.711Z,76.00
2018-08-10T17:40:12.199Z,76.00
2018-08-10T17:42:40.682Z,77.50
2018-08-10T17:45:11.275Z,77.10
2018-08-10T17:47:39.713Z,77.60
2018-08-10T17:50:12.173Z,77.20
2018-08-10T17:52:42.817Z,78.00
2018-08-10T17:55:11.536Z,77.50
2018-08-10T17:57:39.987Z,77.60
2018-08-10T18:00:11.950Z,77.50
2018-08-10T18:02:40.395Z,77.90
2018-08-10T18:05:10.764Z,78.20
2018-08-10T18:07:39.496Z,79.40
2018-08-10T18:10:08.606Z,79.30
2018-08-10T18:12:37.901Z,79.00
2018-08-10T18:15:08.031Z,78.50
2018-08-10T18:17:37.100Z,79.30
2018-08-10T18:20:07.676Z,79.50
2018-08-10T18:22:36.098Z,79.60
2018-08-10T18:25:05.586Z,79.50
2018-08-10T18:27:34.018Z,79.60
2018-08-10T18:30:02.493Z,80.00
2018-08-10T18:32:30.982Z,80.10
2018-08-10T18:34:59.639Z,79.50
2018-08-10T18:37:28.078Z,79.80
2018-08-10T18:39:56.876Z,79.00
2018-08-10T18:42:25.321Z,79.30
2018-08-10T18:44:53.991Z,79.80
2018-08-10T18:47:22.456Z,80.50
2018-08-10T18:49:50.890Z,81.00
2018-08-10T18:52:19.364Z,81.50
2018-08-10T18:54:48.090Z,81.10
2018-08-10T18:57:16.553Z,81.00
2018-08-10T18:59:44.987Z,81.60
2018-08-10T19:02:13.399Z,81.80
2018-08-10T19:04:41.863Z,82.30
2018-08-10T19:07:10.274Z,82.60
2018-08-10T19:09:38.707Z,83.60
2018-08-10T19:12:07.433Z,84.50
2018-08-10T19:14:36.007Z,85.50
2018-08-10T19:17:04.563Z,86.20
2018-08-10T19:19:33.118Z,86.10
2018-08-10T19:22:01.740Z,86.60
2018-08-10T19:24:30.257Z,86.80
2018-08-10T19:26:58.847Z,86.80
2018-08-10T19:29:27.339Z,87.00
2018-08-10T19:31:55.790Z,87.50
2018-08-10T19:34:24.417Z,88.00
2018-08-10T19:36:52.885Z,88.20
2018-08-10T19:39:21.350Z,88.30
2018-08-10T19:41:49.891Z,88.90
2018-08-10T19:44:18.407Z,89.50
2018-08-10T19:46:46.938Z,89.30
2018-08-10T19:49:15.646Z,89.50
2018-08-10T19:51:44.075Z,89.50
2018-08-10T19:54:12.523Z,89.30
2018-08-10T19:56:41.001Z,89.20
2018-08-10T19:59:09.427Z,89.70
2018-08-10T20:01:37.965Z,90.00
2018-08-10T20:04:06.435Z,90.00
2018-08-10T20:06:34.875Z,90.20
2018-08-10T20:09:04.871Z,90.40
2018-08-10T20:11:33.344Z,90.70
2018-08-10T20:14:01.779Z,90.60
2018-08-10T20:16:30.431Z,90.60
2018-08-10T20:18:58.996Z,90.80
2018-08-10T20:21:27.458Z,90.90
2018-08-10T20:23:55.910Z,91.20
2018-08-10T20:26:24.458Z,91.30
2018-08-10T20:28:52.952Z,91.20
2018-08-10T20:31:21.485Z,91.00
2018-08-10T20:33:49.984Z,91.00
2018-08-10T20:36:18.470Z,91.40
2018-08-10T20:38:46.928Z,91.30
2018-08-10T20:41:15.447Z,91.00
2018-08-10T20:43:43.975Z,90.80
2018-08-10T20:46:12.431Z,90.80
2018-08-10T20:48:40.931Z,90.40
2018-08-10T20:51:09.433Z,90.50
2018-08-10T20:53:37.899Z,90.60
2018-08-10T20:56:06.478Z,91.20
2018-08-10T20:58:35.050Z,90.80
2018-08-10T21:01:03.470Z,90.90
2018-08-10T21:03:33.382Z,91.00
2018-08-10T21:06:03.279Z,91.00
2018-08-10T21:08:31.925Z,90.90
2018-08-10T21:11:00.466Z,91.30
2018-08-10T21:13:29.136Z,91.00
2018-08-10T21:15:57.640Z,90.80
2018-08-10T21:18:26.133Z,90.80
2018-08-10T21:20:54.870Z,90.80
2018-08-10T21:23:23.344Z,90.80
2018-08-10T21:25:54.018Z,90.80
2018-08-10T21:28:24.106Z,90.90
2018-08-10T21:30:54.038Z,91.20
2018-08-10T21:33:24.014Z,91.10
2018-08-10T21:35:54.498Z,91.40
2018-08-10T21:38:24.746Z,91.50
2018-08-10T21:40:54.601Z,91.90
2018-08-10T21:43:24.365Z,91.90
2018-08-10T21:45:54.398Z,91.90
2018-08-10T21:48:24.578Z,92.00
2018-08-10T21:50:54.450Z,91.90
2018-08-10T21:53:22.920Z,92.00
2018-08-10T21:55:52.665Z,92.10
2018-08-10T21:58:24.546Z,92.20
2018-08-10T22:00:58.305Z,92.30
2018-08-10T22:03:27.108Z,92.20
2018-08-10T22:05:56.807Z,92.00
2018-08-10T22:08:27.293Z,92.00
2018-08-10T22:10:56.952Z,91.70
2018-08-10T22:13:32.802Z,92.20
2018-08-10T22:16:07.210Z,92.30
2018-08-10T22:18:41.452Z,92.20
2018-08-10T22:21:12.554Z,92.00
2018-08-10T22:23:42.889Z,92.20
2018-08-10T22:26:11.458Z,92.30
2018-08-10T22:28:42.674Z,92.20
2018-08-10T22:31:13.371Z,92.20
2018-08-10T22:33:42.106Z,92.20
2018-08-10T22:36:11.931Z,92.30
2018-08-10T22:38:40.605Z,92.40
2018-08-10T22:41:09.122Z,92.30
2018-08-10T22:43:37.589Z,92.20
2018-08-10T22:46:06.403Z,92.00
2018-08-10T22:48:35.149Z,91.90
2018-08-10T22:51:03.615Z,92.20
2018-08-10T22:53:32.091Z,92.50
2018-08-10T22:56:00.566Z,94.10
2018-08-10T22:58:29.290Z,92.30
2018-08-10T23:00:57.834Z,91.70
2018-08-10T23:03:26.358Z,91.40
2018-08-10T23:05:54.834Z,91.60
2018-08-10T23:08:23.346Z,91.90
2018-08-10T23:10:51.977Z,92.10
2018-08-10T23:13:20.485Z,92.50
2018-08-10T23:15:49.284Z,92.60
2018-08-10T23:18:17.762Z,92.50
2018-08-10T23:20:46.585Z,92.60
2018-08-10T23:23:14.995Z,92.90
2018-08-10T23:25:43.494Z,93.00
2018-08-10T23:28:12.078Z,92.70
2018-08-10T23:30:40.493Z,92.80
2018-08-10T23:33:09.038Z,93.00
2018-08-10T23:35:37.582Z,93.40
2018-08-10T23:38:06.012Z,93.50
2018-08-10T23:40:34.457Z,93.40
2018-08-10T23:43:02.948Z,93.30
2018-08-10T23:45:31.584Z,93.20
2018-08-10T23:48:00.079Z,93.30
2018-08-10T23:50:28.539Z,93.20
2018-08-10T23:52:57.001Z,93.30
2018-08-10T23:55:25.446Z,93.30
2018-08-10T23:57:53.946Z,93.50
